CDT,Max TemperatureF,Mean TemperatureF,Min TemperatureF,Max Dew PointF,MeanDew PointF,Min DewpointF,Max Humidity, Mean Humidity, Min Humidity, Max Sea Level PressureIn, Mean Sea Level PressureIn, Min Sea Level PressureIn, Max VisibilityMiles, Mean VisibilityMiles, Min VisibilityMiles, Max Wind SpeedMPH, Mean Wind SpeedMPH, Max Gust SpeedMPH,PrecipitationIn, CloudCover, Events, WindDirDegrees
2012-10-1,71,58,45,49,36,26,69,42,21,30.13,30.05,29.95,10,8,2,20,11,28,T,2,Rain,340
2012-10-2,78,56,33,33,29,26,70,43,16,30.03,29.89,29.75,10,10,10,22,10,28,0.00,0,,177
2012-10-3,86,65,44,41,35,27,76,48,19,30.03,29.75,29.60,10,10,4,37,19,45,0.00,1,Rain,177
2012-10-4,51,44,37,38,30,25,76,59,42,30.37,30.23,30.02,10,10,10,37,19,47,0.00,7,,315
2012-10-5,51,39,27,26,21,17,78,55,28,30.39,30.36,30.30,10,10,10,23,12,32,0.00,0,,318
2012-10-6,48,37,25,27,20,14,75,59,29,30.45,30.39,30.31,10,10,7,28,9,29,0.00,3,,314
2012-10-7,60,44,27,30,22,14,75,46,17,30.30,30.08,29.87,10,10,10,20,8,29,0.00,0,,224
2012-10-8,70,57,43,42,33,25,66,46,25,29.85,29.76,29.70,10,10,10,26,13,32,T,4,Rain,256
2012-10-9,54,44,33,43,28,22,71,54,36,30.15,29.99,29.81,10,10,10,32,16,40,T,5,,306
2012-10-10,67,49,30,35,26,20,69,47,24,30.18,30.05,29.85,10,10,10,18,10,23,0.00,0,,218
2012-10-11,56,41,26,35,30,22,75,59,42,30.45,30.20,29.84,10,10,10,24,11,31,T,1,,358
2012-10-12,59,42,24,36,22,12,78,47,18,30.45,30.19,29.91,10,10,10,30,15,36,0.00,3,,164
2012-10-13,69,58,46,47,42,36,90,62,36,29.87,29.73,29.66,10,10,10,16,9,22,0.00,0,,218
2012-10-14,65,53,40,36,33,30,70,51,31,30.00,29.94,29.80,10,10,10,17,9,25,0.00,0,,329
2012-10-15,78,56,34,38,34,29,76,49,22,29.97,29.82,29.61,10,10,10,29,10,30,0.00,0,,156
2012-10-16,76,61,46,48,42,36,64,48,32,29.61,29.48,29.21,10,10,10,22,9,30,T,1,Rain,271
2012-10-17,67,57,47,51,35,17,83,54,23,29.52,29.40,29.12,10,10,8,46,29,60,0.03,6,Rain,300
2012-10-18,47,45,43,41,38,29,89,78,48,29.71,29.54,29.43,10,9,3,48,34,61,0.58,8,Rain,318
2012-10-19,47,42,37,39,37,36,93,82,71,29.86,29.81,29.72,10,10,10,36,15,46,0.02,6,Rain,332
2012-10-20,67,51,34,44,39,32,96,74,42,29.82,29.71,29.62,10,10,6,20,12,24,0.00,0,,157
2012-10-21,64,54,43,47,43,39,89,69,48,29.97,29.80,29.59,10,10,10,24,13,31,0.00,2,,36
2012-10-22,63,53,43,52,46,39,96,76,56,29.98,29.90,29.80,10,9,7,15,9,18,T,7,Rain,42
2012-10-23,60,54,48,52,49,45,96,84,72,29.85,29.73,29.65,10,7,1,20,7,24,0.00,6,,200
2012-10-24,53,44,34,46,38,30,92,68,44,30.01,29.93,29.86,10,9,7,29,16,36,0.02,4,Rain,354
2012-10-25,37,35,33,32,29,26,89,77,64,30.38,30.12,29.94,10,7,1,26,16,31,0.07,8,Snow,320
2012-10-26,38,34,30,28,24,20,78,63,48,30.51,30.45,30.39,10,10,10,21,9,25,0.00,8,,270
2012-10-27,43,33,22,34,30,20,92,76,60,30.39,30.29,30.20,10,10,9,21,12,24,T,5,Rain,166
2012-10-28,53,40,27,34,31,25,100,75,50,30.27,30.20,30.12,10,8,2,22,11,26,0.00,2,,145
2012-10-29,58,49,40,34,32,31,70,55,40,30.12,30.09,30.06,10,10,10,22,13,28,0.00,1,,150
2012-10-30,55,46,36,32,31,27,70,56,41,30.14,30.08,30.05,10,10,10,20,12,,T,4,Rain,139
2012-10-31,64,47,29,39,31,24,78,58,37,30.08,30.03,29.97,10,10,10,10,4,13,0.00,0,,154